createdAt,value
2022-08-23T00:00:41.533Z,20.80
2022-08-23T00:03:21.370Z,20.86
2022-08-23T00:06:01.812Z,20.86
2022-08-23T00:08:48.416Z,20.86
2022-08-23T00:11:35.714Z,20.81
2022-08-23T00:14:19.505Z,20.84
2022-08-23T00:17:00.400Z,20.77
2022-08-23T00:19:55.440Z,20.69
2022-08-23T00:22:37.168Z,20.64
2022-08-23T00:25:17.384Z,20.67
2022-08-23T00:27:56.968Z,20.60
2022-08-23T00:30:38.527Z,20.62
2022-08-23T00:33:17.628Z,20.59
2022-08-23T00:35:59.059Z,20.52
2022-08-23T00:38:40.674Z,20.52
2022-08-23T00:41:20.905Z,20.42
2022-08-23T00:44:21.069Z,20.47
2022-08-23T00:47:18.835Z,20.50
2022-08-23T00:50:23.932Z,20.42
2022-08-23T00:53:08.057Z,20.52
2022-08-23T00:55:51.659Z,20.48
2022-08-23T00:58:32.234Z,20.54
2022-08-23T01:01:11.545Z,20.51
2022-08-23T01:04:03.036Z,20.55
2022-08-23T01:06:50.822Z,20.45
2022-08-23T01:09:45.211Z,20.50
2022-08-23T01:12:33.207Z,20.55
2022-08-23T01:15:17.836Z,20.49
2022-08-23T01:18:02.972Z,20.55
2022-08-23T01:20:48.736Z,20.57
2022-08-23T01:23:36.311Z,20.45
2022-08-23T01:26:21.940Z,20.37
2022-08-23T01:29:06.503Z,20.42
2022-08-23T01:31:47.073Z,20.38
2022-08-23T01:34:28.683Z,20.38
2022-08-23T01:37:09.247Z,20.43
2022-08-23T01:39:49.465Z,20.44
2022-08-23T01:42:31.200Z,20.40
2022-08-23T01:45:12.648Z,20.39
2022-08-23T01:47:54.015Z,20.38
2022-08-23T01:53:20.307Z,20.34
2022-08-23T01:56:02.762Z,20.39
2022-08-23T01:58:44.359Z,20.40
2022-08-23T02:01:27.084Z,20.38
2022-08-23T02:04:08.453Z,20.35
2022-08-23T02:06:47.058Z,20.30
2022-08-23T02:09:31.777Z,20.32
2022-08-23T02:12:14.291Z,20.34
2022-08-23T02:14:56.709Z,20.25
2022-08-23T02:17:49.215Z,20.27
2022-08-23T02:20:46.413Z,20.20
2022-08-23T02:23:26.614Z,20.25
2022-08-23T02:26:06.965Z,20.23
2022-08-23T02:28:47.104Z,20.18
2022-08-23T02:31:27.702Z,20.09
2022-08-23T02:37:11.960Z,20.05
2022-08-23T02:39:52.954Z,20.06
2022-08-23T02:42:34.566Z,19.91
2022-08-23T02:45:14.361Z,19.97
2022-08-23T02:47:59.794Z,19.99
2022-08-23T02:50:49.908Z,20.02
2022-08-23T02:53:43.805Z,19.90
2022-08-23T02:56:24.301Z,19.77
2022-08-23T02:59:04.766Z,19.89
2022-08-23T03:01:46.010Z,19.94
2022-08-23T03:04:34.810Z,19.90
2022-08-23T03:07:23.666Z,19.86
2022-08-23T03:10:04.909Z,19.91
2022-08-23T03:12:49.039Z,19.74
2022-08-23T03:15:28.445Z,19.79
2022-08-23T03:18:12.860Z,19.81
2022-08-23T03:20:52.827Z,19.75
2022-08-23T03:23:36.890Z,19.70
2022-08-23T03:26:17.969Z,19.66
2022-08-23T03:29:00.680Z,19.59
2022-08-23T03:31:47.202Z,19.61
2022-08-23T03:34:46.379Z,19.51
2022-08-23T03:37:25.835Z,19.54
2022-08-23T03:40:07.820Z,19.54
2022-08-23T03:42:48.640Z,19.54
2022-08-23T03:45:43.467Z,19.62
2022-08-23T03:48:24.793Z,19.63
2022-08-23T03:51:07.046Z,19.66
2022-08-23T03:53:49.789Z,19.67
2022-08-23T03:56:31.285Z,19.61
2022-08-23T03:59:34.920Z,19.64
2022-08-23T04:02:16.218Z,19.71
2022-08-23T04:04:57.601Z,19.78
2022-08-23T04:08:10.266Z,19.71
2022-08-23T04:10:53.742Z,19.63
2022-08-23T04:13:56.092Z,19.57
2022-08-23T04:16:37.645Z,19.57
2022-08-23T04:19:17.199Z,19.61
2022-08-23T04:22:14.427Z,19.55
2022-08-23T04:25:33.809Z,19.59
2022-08-23T04:28:16.185Z,19.53
2022-08-23T04:30:55.617Z,19.42
2022-08-23T04:33:40.168Z,19.53
2022-08-23T04:36:23.315Z,19.49
2022-08-23T04:39:10.123Z,19.55
2022-08-23T04:42:15.042Z,19.56
2022-08-23T04:44:57.562Z,19.59
2022-08-23T04:47:40.282Z,19.56
2022-08-23T04:50:22.685Z,19.51
2022-08-23T04:53:26.085Z,19.56
2022-08-23T04:56:25.040Z,19.57
2022-08-23T04:59:05.620Z,19.49
2022-08-23T05:01:47.025Z,19.52
2022-08-23T05:04:27.659Z,19.54
2022-08-23T05:07:07.482Z,19.55
2022-08-23T05:09:46.008Z,19.53
2022-08-23T05:12:27.373Z,19.56
2022-08-23T05:15:08.663Z,19.57
2022-08-23T05:17:53.355Z,19.56
2022-08-23T05:20:35.639Z,19.55
2022-08-23T05:23:18.883Z,19.63
2022-08-23T05:26:06.109Z,19.67
2022-08-23T05:28:50.389Z,19.70
2022-08-23T05:31:31.799Z,19.73
2022-08-23T05:34:13.196Z,19.74
2022-08-23T05:37:00.551Z,19.76
2022-08-23T05:39:46.840Z,19.77
2022-08-23T05:42:27.141Z,19.76
2022-08-23T05:45:12.144Z,19.77
2022-08-23T05:47:52.570Z,19.84
2022-08-23T05:50:42.959Z,19.87
2022-08-23T05:53:24.552Z,19.77
2022-08-23T05:56:14.605Z,19.80
2022-08-23T05:59:16.664Z,19.86
2022-08-23T06:01:56.498Z,19.86
2022-08-23T06:04:38.225Z,19.89
2022-08-23T06:07:17.707Z,19.88
2022-08-23T06:09:57.809Z,19.87
2022-08-23T06:12:37.410Z,19.98
2022-08-23T06:15:18.567Z,20.08
2022-08-23T06:17:58.479Z,20.11
2022-08-23T06:20:39.388Z,20.08
2022-08-23T06:23:20.018Z,20.15
2022-08-23T06:26:00.550Z,20.19
2022-08-23T06:28:51.048Z,20.27
2022-08-23T06:31:46.919Z,20.37
2022-08-23T06:34:32.291Z,20.39
2022-08-23T06:37:40.078Z,20.31
2022-08-23T06:40:35.170Z,20.42
2022-08-23T06:43:34.787Z,20.46
2022-08-23T06:46:36.857Z,20.41
2022-08-23T06:49:17.194Z,20.60
2022-08-23T06:51:59.895Z,20.68
2022-08-23T06:54:51.358Z,20.74
2022-08-23T06:57:56.049Z,20.76
2022-08-23T07:01:44.179Z,20.85
2022-08-23T07:04:33.511Z,21.00
2022-08-23T07:07:24.345Z,21.00
2022-08-23T07:10:16.164Z,21.25
2022-08-23T07:12:58.287Z,21.34
2022-08-23T07:15:39.680Z,21.44
2022-08-23T07:18:20.600Z,21.56
2022-08-23T07:21:03.871Z,21.65
2022-08-23T07:23:46.645Z,21.87
2022-08-23T07:26:29.488Z,22.05
2022-08-23T07:29:13.183Z,21.98
2022-08-23T07:31:56.026Z,22.27
2022-08-23T07:34:36.931Z,22.46
2022-08-23T07:37:17.309Z,22.70
2022-08-23T07:39:58.634Z,22.82
2022-08-23T07:42:40.060Z,22.74
2022-08-23T07:45:22.315Z,22.97
2022-08-23T07:48:07.893Z,23.02
2022-08-23T07:51:04.755Z,23.26
2022-08-23T07:53:52.281Z,23.09
2022-08-23T07:56:32.180Z,23.26
2022-08-23T07:59:23.598Z,23.37
2022-08-23T08:02:36.240Z,23.98
2022-08-23T08:05:21.557Z,24.22
2022-08-23T08:08:00.987Z,24.32
2022-08-23T08:10:41.792Z,24.54
2022-08-23T08:13:21.838Z,24.43
2022-08-23T08:16:01.694Z,24.43
2022-08-23T08:18:44.661Z,24.92
2022-08-23T08:21:48.535Z,25.36
2022-08-23T08:24:57.657Z,25.68
2022-08-23T08:27:38.729Z,25.64
2022-08-23T08:30:39.288Z,25.93
2022-08-23T08:33:21.182Z,26.11
2022-08-23T08:36:05.805Z,25.94
2022-08-23T08:38:48.025Z,26.07
2022-08-23T08:42:04.692Z,26.07
2022-08-23T08:44:52.861Z,26.40
2022-08-23T08:47:43.232Z,26.58
2022-08-23T08:50:26.522Z,26.80
2022-08-23T08:53:26.961Z,27.26
2022-08-23T08:56:32.323Z,27.30
2022-08-23T08:59:46.236Z,27.30
2022-08-23T09:02:32.561Z,27.62
2022-08-23T09:05:17.880Z,28.00
2022-08-23T09:08:17.001Z,28.51
2022-08-23T09:11:12.065Z,28.52
2022-08-23T09:14:24.453Z,28.48
2022-08-23T09:17:06.917Z,28.94
2022-08-23T09:19:51.253Z,29.09
2022-08-23T09:22:36.167Z,28.94
2022-08-23T09:25:24.070Z,28.63
2022-08-23T09:28:15.244Z,28.74
2022-08-23T09:30:56.253Z,29.13
2022-08-23T09:33:41.183Z,29.08
2022-08-23T09:36:26.899Z,28.76
2022-08-23T09:39:31.203Z,29.40
2022-08-23T09:42:29.513Z,29.81
2022-08-23T09:45:26.834Z,30.01
2022-08-23T09:48:38.892Z,29.72
2022-08-23T09:51:26.104Z,30.05
2022-08-23T09:54:08.979Z,30.36
2022-08-23T09:56:54.554Z,30.12
2022-08-23T09:59:40.272Z,29.77
2022-08-23T10:02:29.621Z,30.14
2022-08-23T10:05:19.788Z,29.74
2022-08-23T10:08:02.720Z,30.36
2022-08-23T10:11:42.254Z,30.23
2022-08-23T10:14:25.923Z,30.44
2022-08-23T10:17:15.785Z,30.22
2022-08-23T10:20:02.228Z,30.41
2022-08-23T10:22:46.617Z,30.46
2022-08-23T10:25:41.873Z,29.61
2022-08-23T10:28:53.316Z,29.81
2022-08-23T10:31:42.908Z,30.20
2022-08-23T10:34:29.837Z,30.88
2022-08-23T10:37:23.192Z,30.53
2022-08-23T10:40:16.151Z,30.61
2022-08-23T10:43:07.514Z,30.78
2022-08-23T10:45:50.045Z,31.11
2022-08-23T10:48:48.906Z,30.88
2022-08-23T10:51:43.235Z,31.09
2022-08-23T10:54:35.116Z,31.02
2022-08-23T10:57:30.383Z,31.78
2022-08-23T11:00:14.035Z,31.58
2022-08-23T11:03:00.913Z,31.98
2022-08-23T11:06:27.323Z,31.58
2022-08-23T11:09:11.875Z,31.44
2022-08-23T11:12:11.719Z,31.36
2022-08-23T11:15:11.048Z,32.06
2022-08-23T11:18:02.185Z,31.55
2022-08-23T11:21:03.484Z,30.89
2022-08-23T11:23:53.766Z,31.21
2022-08-23T11:27:06.581Z,31.49
2022-08-23T11:29:51.912Z,31.72
2022-08-23T11:32:54.909Z,32.11
2022-08-23T11:35:43.016Z,32.50
2022-08-23T11:39:01.447Z,32.56
2022-08-23T11:42:04.466Z,32.31
2022-08-23T11:44:50.418Z,32.47
2022-08-23T11:47:41.148Z,32.81
2022-08-23T11:50:27.487Z,32.94
2022-08-23T11:53:20.330Z,32.21
2022-08-23T11:56:17.418Z,32.82
2022-08-23T11:59:08.862Z,33.27
2022-08-23T12:01:49.309Z,33.35
2022-08-23T12:04:34.218Z,33.45
2022-08-23T12:07:13.510Z,33.29
2022-08-23T12:09:56.508Z,33.23
2022-08-23T12:12:41.873Z,32.02
2022-08-23T12:16:00.924Z,32.40
2022-08-23T12:18:47.734Z,32.81
2022-08-23T12:21:34.252Z,33.15
2022-08-23T12:24:18.383Z,32.41
2022-08-23T12:27:11.486Z,32.25
2022-08-23T12:29:58.783Z,31.82
2022-08-23T12:32:42.812Z,32.47
2022-08-23T12:35:33.543Z,32.99
2022-08-23T12:38:21.312Z,33.43
2022-08-23T12:41:14.801Z,32.77
2022-08-23T12:44:03.236Z,33.69
2022-08-23T12:46:46.286Z,33.07
2022-08-23T12:49:30.981Z,32.64
2022-08-23T12:52:13.102Z,32.38
2022-08-23T12:54:57.622Z,32.90
2022-08-23T12:57:38.819Z,33.70
2022-08-23T13:00:23.199Z,32.57
2022-08-23T13:03:08.366Z,33.02
2022-08-23T13:05:52.762Z,33.49
2022-08-23T13:08:35.778Z,32.69
2022-08-23T13:11:19.533Z,32.50
2022-08-23T13:13:58.727Z,33.29
2022-08-23T13:16:44.974Z,32.97
2022-08-23T13:19:27.950Z,33.01
2022-08-23T13:22:12.750Z,33.31
2022-08-23T13:25:29.078Z,33.47
2022-08-23T13:28:26.153Z,33.50
2022-08-23T13:31:08.475Z,33.57
2022-08-23T13:33:54.577Z,33.63
2022-08-23T13:36:36.471Z,33.82
2022-08-23T13:39:16.077Z,33.44
2022-08-23T13:41:56.527Z,32.82
2022-08-23T13:44:37.169Z,33.00
2022-08-23T13:47:23.300Z,32.07
2022-08-23T13:50:11.112Z,32.44
2022-08-23T13:55:54.288Z,32.03
2022-08-23T13:58:59.087Z,31.95
2022-08-23T14:01:38.626Z,31.71
2022-08-23T14:04:18.228Z,31.39
2022-08-23T14:07:01.681Z,31.16
2022-08-23T14:09:41.074Z,31.01
2022-08-23T14:12:25.102Z,31.04
2022-08-23T14:15:10.066Z,30.43
2022-08-23T14:17:52.112Z,30.65
2022-08-23T14:20:56.314Z,30.29
2022-08-23T14:23:36.409Z,30.38
2022-08-23T14:26:26.922Z,30.03
2022-08-23T14:29:06.419Z,29.96
2022-08-23T14:31:46.184Z,30.05
2022-08-23T14:34:26.227Z,29.86
2022-08-23T14:38:02.806Z,29.67
2022-08-23T14:40:10.851Z,29.85
2022-08-23T14:42:50.666Z,29.80
2022-08-23T14:45:30.312Z,29.81
2022-08-23T14:48:12.118Z,29.75
2022-08-23T14:50:52.412Z,29.62
2022-08-23T14:53:35.558Z,29.55
2022-08-23T14:56:38.758Z,29.47
2022-08-23T14:59:20.373Z,29.39
2022-08-23T15:01:59.925Z,29.36
2022-08-23T15:04:42.069Z,29.36
2022-08-23T15:07:22.624Z,29.26
2022-08-23T15:10:05.148Z,29.11
2022-08-23T15:13:13.993Z,29.11
2022-08-23T15:15:49.105Z,29.10
2022-08-23T15:18:28.880Z,28.99
2022-08-23T15:21:10.668Z,29.05
2022-08-23T15:23:50.576Z,28.94
2022-08-23T15:26:31.765Z,29.00
2022-08-23T15:29:11.261Z,28.91
2022-08-23T15:32:03.800Z,28.73
2022-08-23T15:34:46.634Z,28.74
2022-08-23T15:37:27.306Z,28.73
2022-08-23T15:40:09.059Z,28.69
2022-08-23T15:42:48.737Z,28.68
2022-08-23T15:45:49.741Z,28.59
2022-08-23T15:48:31.394Z,28.49
2022-08-23T15:51:12.090Z,28.51
2022-08-23T15:53:52.151Z,28.48
2022-08-23T15:56:33.430Z,28.46
2022-08-23T15:59:17.288Z,28.42
2022-08-23T16:01:57.554Z,28.44
2022-08-23T16:04:48.237Z,28.42
2022-08-23T16:07:28.560Z,28.37
2022-08-23T16:10:12.025Z,28.34
2022-08-23T16:12:51.378Z,28.29
2022-08-23T16:15:31.203Z,28.28
2022-08-23T16:18:13.283Z,28.19
2022-08-23T16:20:54.225Z,28.12
2022-08-23T16:23:33.839Z,28.15
2022-08-23T16:26:17.168Z,28.02
2022-08-23T16:29:01.852Z,28.02
2022-08-23T16:31:43.231Z,28.03
2022-08-23T16:35:18.779Z,27.96
2022-08-23T16:38:02.487Z,27.94
2022-08-23T16:40:41.375Z,27.90
2022-08-23T16:43:22.792Z,27.85
2022-08-23T16:46:02.267Z,27.79
2022-08-23T16:48:44.248Z,27.72
2022-08-23T16:51:23.632Z,27.66
2022-08-23T16:54:03.538Z,27.58
2022-08-23T16:56:45.040Z,27.53
2022-08-23T16:59:29.684Z,27.53
2022-08-23T17:02:11.459Z,27.51
2022-08-23T17:04:52.842Z,27.48
2022-08-23T17:07:33.475Z,27.46
2022-08-23T17:10:14.348Z,27.36
2022-08-23T17:12:58.247Z,27.30
2022-08-23T17:15:38.235Z,27.28
2022-08-23T17:18:17.791Z,27.18
2022-08-23T17:20:57.773Z,27.11
2022-08-23T17:23:40.648Z,27.01
2022-08-23T17:26:20.598Z,26.94
2022-08-23T17:29:00.469Z,26.92
2022-08-23T17:31:40.169Z,27.01
2022-08-23T17:34:19.611Z,26.96
2022-08-23T17:37:21.952Z,26.91
2022-08-23T17:40:01.663Z,26.85
2022-08-23T17:42:41.863Z,26.83
2022-08-23T17:45:22.040Z,26.73
2022-08-23T17:48:02.901Z,26.68
2022-08-23T17:50:43.451Z,26.61
2022-08-23T17:53:23.863Z,26.48
2022-08-23T17:56:05.961Z,26.45
2022-08-23T17:58:49.977Z,26.34
2022-08-23T18:01:30.242Z,26.34
2022-08-23T18:04:09.513Z,26.32
2022-08-23T18:06:49.328Z,26.26
2022-08-23T18:09:29.148Z,26.15
2022-08-23T18:12:08.344Z,26.12
2022-08-23T18:14:51.133Z,26.01
2022-08-23T18:17:34.749Z,25.99
2022-08-23T18:20:14.851Z,25.94
2022-08-23T18:22:57.962Z,25.74
2022-08-23T18:25:39.561Z,25.67
2022-08-23T18:28:21.148Z,25.66
2022-08-23T18:31:03.480Z,25.69
2022-08-23T18:33:46.735Z,25.55
2022-08-23T18:36:28.809Z,25.56
2022-08-23T18:39:09.845Z,25.47
2022-08-23T18:41:49.246Z,25.30
2022-08-23T18:44:34.235Z,25.32
2022-08-23T18:47:13.649Z,25.18
2022-08-23T18:49:53.470Z,25.20
2022-08-23T18:52:33.276Z,25.15
2022-08-23T18:55:12.122Z,25.10
2022-08-23T18:57:49.993Z,24.99
2022-08-23T19:00:32.555Z,24.96
2022-08-23T19:03:14.856Z,24.94
2022-08-23T19:05:58.288Z,24.86
2022-08-23T19:08:38.473Z,24.81
2022-08-23T19:11:19.929Z,24.74
2022-08-23T19:14:00.492Z,24.59
2022-08-23T19:16:45.651Z,24.61
2022-08-23T19:19:29.320Z,24.56
2022-08-23T19:22:10.763Z,24.51
2022-08-23T19:24:50.167Z,24.37
2022-08-23T19:27:29.933Z,24.35
2022-08-23T19:30:12.116Z,24.30
2022-08-23T19:33:05.509Z,24.24
2022-08-23T19:36:02.514Z,24.10
2022-08-23T19:38:42.303Z,24.08
2022-08-23T19:41:20.913Z,24.00
2022-08-23T19:44:00.532Z,23.94
2022-08-23T19:46:42.227Z,23.81
2022-08-23T19:49:22.884Z,23.77
2022-08-23T19:52:02.123Z,23.72
2022-08-23T19:54:42.862Z,23.68
2022-08-23T19:57:21.516Z,23.55
2022-08-23T20:00:00.388Z,23.56
2022-08-23T20:03:21.902Z,23.50
2022-08-23T20:06:02.617Z,23.43
2022-08-23T20:08:44.440Z,23.38
2022-08-23T20:11:27.770Z,23.34
2022-08-23T20:14:25.827Z,23.28
2022-08-23T20:17:08.733Z,23.32
2022-08-23T20:19:49.664Z,23.29
2022-08-23T20:22:48.839Z,23.28
2022-08-23T20:25:30.684Z,23.24
2022-08-23T20:28:11.109Z,23.26
2022-08-23T20:30:53.033Z,23.25
2022-08-23T20:33:32.575Z,23.25
2022-08-23T20:36:12.559Z,23.23
2022-08-23T20:38:54.114Z,23.23
2022-08-23T20:41:36.244Z,23.25
2022-08-23T20:44:16.535Z,23.24
2022-08-23T20:46:59.799Z,23.26
2022-08-23T20:49:42.513Z,23.23
2022-08-23T20:52:24.311Z,23.23
2022-08-23T20:55:09.574Z,23.27
2022-08-23T20:57:50.309Z,23.28
2022-08-23T21:00:29.767Z,23.28
2022-08-23T21:03:09.597Z,23.29
2022-08-23T21:05:49.626Z,23.29
2022-08-23T21:08:53.699Z,23.26
2022-08-23T21:11:34.614Z,23.24
2022-08-23T21:14:17.266Z,23.21
2022-08-23T21:17:13.546Z,23.19
2022-08-23T21:19:54.042Z,23.17
2022-08-23T21:22:34.393Z,23.14
2022-08-23T21:25:17.050Z,23.12
2022-08-23T21:27:58.871Z,23.13
2022-08-23T21:30:41.139Z,23.13
2022-08-23T21:33:21.806Z,23.05
2022-08-23T21:36:05.128Z,22.96
2022-08-23T21:38:45.808Z,22.91
2022-08-23T21:41:31.930Z,22.95
2022-08-23T21:44:12.992Z,22.77
2022-08-23T21:46:54.662Z,22.70
2022-08-23T21:49:36.058Z,22.75
2022-08-23T21:52:15.507Z,22.66
2022-08-23T21:54:55.345Z,22.59
2022-08-23T21:57:35.151Z,22.58
2022-08-23T22:00:17.538Z,22.49
2022-08-23T22:03:00.117Z,22.54
2022-08-23T22:05:44.840Z,22.39
2022-08-23T22:08:25.534Z,22.39
2022-08-23T22:11:07.351Z,22.37
2022-08-23T22:13:48.743Z,22.40
2022-08-23T22:16:28.293Z,22.31
2022-08-23T22:19:08.136Z,22.31
2022-08-23T22:21:51.264Z,22.21
2022-08-23T22:24:31.481Z,22.29
2022-08-23T22:27:13.672Z,22.20
2022-08-23T22:29:55.962Z,22.10
2022-08-23T22:32:37.536Z,22.12
2022-08-23T22:35:18.393Z,22.05
2022-08-23T22:38:13.213Z,21.98
2022-08-23T22:40:53.686Z,21.90
2022-08-23T22:43:34.433Z,21.91
2022-08-23T22:46:17.006Z,21.91
2022-08-23T22:48:58.352Z,21.79
2022-08-23T22:51:37.861Z,21.79
2022-08-23T22:54:19.675Z,21.71
2022-08-23T22:57:00.889Z,21.70
2022-08-23T22:59:39.083Z,21.59
2022-08-23T23:02:20.247Z,21.48
2022-08-23T23:04:59.907Z,21.48
2022-08-23T23:07:57.427Z,21.45
2022-08-23T23:10:37.828Z,21.51
2022-08-23T23:13:19.283Z,21.42
2022-08-23T23:16:00.636Z,21.40
2022-08-23T23:18:43.052Z,21.40
2022-08-23T23:21:22.786Z,21.37
2022-08-23T23:24:02.792Z,21.34
2022-08-23T23:26:44.593Z,21.32
2022-08-23T23:29:26.791Z,21.27
2022-08-23T23:32:07.202Z,21.26
2022-08-23T23:34:47.888Z,21.17
2022-08-23T23:37:28.027Z,21.13
2022-08-23T23:40:09.345Z,21.06
2022-08-23T23:42:48.165Z,21.06
2022-08-23T23:45:29.693Z,21.01
2022-08-23T23:48:09.255Z,20.98
2022-08-23T23:50:48.620Z,20.95
2022-08-23T23:53:27.221Z,20.92
2022-08-23T23:56:13.577Z,20.88
2022-08-23T23:58:54.344Z,20.81
